createdAt,value
2022-10-01T00:00:58.911Z,12.19
2022-10-01T00:01:58.848Z,12.21
2022-10-01T00:02:58.195Z,12.21
2022-10-01T00:04:04.270Z,12.21
2022-10-01T00:04:59.100Z,12.22
2022-10-01T00:05:59.829Z,12.21
2022-10-01T00:06:58.157Z,12.21
2022-10-01T00:07:57.952Z,12.22
2022-10-01T00:08:59.347Z,12.22
2022-10-01T00:10:07.661Z,12.22
2022-10-01T00:12:41.356Z,12.26
2022-10-01T00:13:39.596Z,12.26
2022-10-01T00:14:38.401Z,12.26
2022-10-01T00:15:38.075Z,12.22
2022-10-01T00:16:40.034Z,12.23
2022-10-01T00:17:40.032Z,12.23
2022-10-01T00:18:38.201Z,12.22
2022-10-01T00:19:38.351Z,12.22
2022-10-01T00:20:47.821Z,12.23
2022-10-01T00:21:45.652Z,12.23
2022-10-01T00:22:39.144Z,12.25
2022-10-01T00:23:37.866Z,12.25
2022-10-01T00:24:49.177Z,12.26
2022-10-01T00:25:43.398Z,12.26
2022-10-01T00:26:37.877Z,12.29
2022-10-01T00:27:39.638Z,12.30
2022-10-01T00:28:40.045Z,12.33
2022-10-01T00:29:37.886Z,12.34
2022-10-01T00:30:44.177Z,12.33
2022-10-01T00:31:39.193Z,12.34
2022-10-01T00:32:38.731Z,12.33
2022-10-01T00:33:40.197Z,12.33
2022-10-01T00:34:38.197Z,12.34
2022-10-01T00:35:37.793Z,12.33
2022-10-01T00:36:37.984Z,12.34
2022-10-01T00:37:40.685Z,12.34
2022-10-01T00:38:43.960Z,12.36
2022-10-01T00:39:40.003Z,12.34
2022-10-01T00:40:39.327Z,12.34
2022-10-01T00:41:38.166Z,12.36
2022-10-01T00:42:39.805Z,12.36
2022-10-01T00:43:39.208Z,12.37
2022-10-01T00:44:44.818Z,12.37
2022-10-01T00:45:39.034Z,12.40
2022-10-01T00:46:52.175Z,12.38
2022-10-01T00:47:41.773Z,12.40
2022-10-01T00:48:37.530Z,12.40
2022-10-01T00:49:37.593Z,12.40
2022-10-01T00:50:37.630Z,12.38
2022-10-01T00:51:37.622Z,12.37
2022-10-01T00:52:37.505Z,12.38
2022-10-01T00:53:37.603Z,12.38
2022-10-01T00:54:37.468Z,12.38
2022-10-01T00:55:37.836Z,12.40
2022-10-01T00:56:37.462Z,12.40
2022-10-01T00:57:46.772Z,12.41
2022-10-01T00:58:37.464Z,12.41
2022-10-01T00:59:42.244Z,12.38
2022-10-01T01:00:38.727Z,12.40
2022-10-01T01:01:37.980Z,12.38
2022-10-01T01:02:37.573Z,12.40
2022-10-01T01:03:37.458Z,12.40
2022-10-01T01:04:37.487Z,12.41
2022-10-01T01:05:37.285Z,12.40
2022-10-01T01:06:37.401Z,12.38
2022-10-01T01:07:42.960Z,12.38
2022-10-01T01:08:38.044Z,12.37
2022-10-01T01:09:38.499Z,12.36
2022-10-01T01:10:38.474Z,12.34
2022-10-01T01:11:37.668Z,12.33
2022-10-01T01:12:42.352Z,12.30
2022-10-01T01:13:37.738Z,12.26
2022-10-01T01:14:37.275Z,12.25
2022-10-01T01:15:37.856Z,12.22
2022-10-01T01:16:37.246Z,12.21
2022-10-01T01:17:37.155Z,12.18
2022-10-01T01:18:37.406Z,12.16
2022-10-01T01:19:37.237Z,12.13
2022-10-01T01:20:37.080Z,12.12
2022-10-01T01:21:37.422Z,12.08
2022-10-01T01:22:37.131Z,12.04
2022-10-01T01:23:37.543Z,12.03
2022-10-01T01:24:37.310Z,12.00
2022-10-01T01:25:44.591Z,11.94
2022-10-01T01:26:37.149Z,11.88
2022-10-01T01:27:36.950Z,11.85
2022-10-01T01:28:44.071Z,11.82
2022-10-01T01:29:37.992Z,11.79
2022-10-01T01:30:37.282Z,11.77
2022-10-01T01:31:44.571Z,11.74
2022-10-01T01:35:10.984Z,11.64
2022-10-01T01:36:10.952Z,11.59
2022-10-01T01:37:11.460Z,11.59
2022-10-01T01:38:11.498Z,11.57
2022-10-01T01:39:12.106Z,11.53
2022-10-01T01:40:09.392Z,11.46
2022-10-01T01:41:09.028Z,11.44
2022-10-01T01:42:09.463Z,11.38
2022-10-01T01:43:09.277Z,11.31
2022-10-01T01:44:09.455Z,11.27
2022-10-01T01:45:09.559Z,11.23
2022-10-01T01:46:09.322Z,11.20
2022-10-01T01:47:10.354Z,11.19
2022-10-01T01:48:11.790Z,11.13
2022-10-01T01:49:09.621Z,11.06
2022-10-01T01:50:09.316Z,11.05
2022-10-01T01:51:09.273Z,11.02
2022-10-01T01:52:10.067Z,11.02
2022-10-01T01:53:09.538Z,10.99
2022-10-01T01:54:09.140Z,10.95
2022-10-01T01:55:08.941Z,10.93
2022-10-01T01:56:11.112Z,10.91
2022-10-01T01:57:08.994Z,10.87
2022-10-01T01:58:09.470Z,10.86
2022-10-01T01:59:09.117Z,10.86
2022-10-01T02:00:09.046Z,10.84
2022-10-01T02:01:09.295Z,10.83
2022-10-01T02:02:08.868Z,10.83
2022-10-01T02:03:09.748Z,10.80
2022-10-01T02:04:08.806Z,10.75
2022-10-01T02:05:09.249Z,10.75
2022-10-01T02:06:14.140Z,10.72
2022-10-01T02:07:08.704Z,10.70
2022-10-01T02:08:09.856Z,10.70
2022-10-01T02:09:09.485Z,10.69
2022-10-01T02:10:08.802Z,10.68
2022-10-01T02:11:09.828Z,10.68
2022-10-01T02:12:09.534Z,10.68
2022-10-01T02:13:08.788Z,10.66
2022-10-01T02:14:10.381Z,10.63
2022-10-01T02:15:09.938Z,10.62
2022-10-01T02:16:09.750Z,10.62
2022-10-01T02:17:08.840Z,10.62
2022-10-01T02:18:09.208Z,10.57
2022-10-01T02:19:08.731Z,10.55
2022-10-01T02:20:13.527Z,10.54
2022-10-01T02:21:09.035Z,10.55
2022-10-01T02:22:15.056Z,10.54
2022-10-01T02:23:19.132Z,10.55
2022-10-01T02:24:10.067Z,10.55
2022-10-01T02:25:09.843Z,10.54
2022-10-01T02:26:09.843Z,10.54
2022-10-01T02:27:08.515Z,10.51
2022-10-01T02:28:13.097Z,10.51
2022-10-01T02:29:09.046Z,10.51
2022-10-01T02:30:10.294Z,10.49
2022-10-01T02:31:11.193Z,10.47
2022-10-01T02:32:09.665Z,10.46
2022-10-01T02:33:08.767Z,10.44
2022-10-01T02:34:12.433Z,10.42
2022-10-01T02:35:12.600Z,10.42
2022-10-01T02:36:48.763Z,10.39
2022-10-01T02:37:18.439Z,10.43
2022-10-01T02:38:08.809Z,10.42
2022-10-01T02:39:11.119Z,10.39
2022-10-01T02:40:11.286Z,10.36
2022-10-01T02:41:08.322Z,10.35
2022-10-01T02:42:13.269Z,10.35
2022-10-01T02:43:10.237Z,10.35
2022-10-01T02:44:08.631Z,10.35
2022-10-01T02:45:08.330Z,10.35
2022-10-01T02:46:09.560Z,10.34
2022-10-01T02:47:08.571Z,10.34
2022-10-01T02:48:08.297Z,10.32
2022-10-01T02:49:14.727Z,10.32
2022-10-01T02:50:08.135Z,10.32
2022-10-01T02:51:12.854Z,10.32
2022-10-01T02:52:08.255Z,10.32
2022-10-01T02:53:08.624Z,10.29
2022-10-01T02:54:15.583Z,10.26
2022-10-01T02:55:09.135Z,10.26
2022-10-01T02:56:09.242Z,10.24
2022-10-01T02:57:12.615Z,10.25
2022-10-01T02:58:08.215Z,10.24
2022-10-01T02:59:08.539Z,10.20
2022-10-01T03:00:17.386Z,10.17
2022-10-01T03:01:08.167Z,10.17
2022-10-01T03:02:10.482Z,10.13
2022-10-01T03:03:09.634Z,10.13
2022-10-01T03:04:08.208Z,10.13
2022-10-01T03:05:10.134Z,10.13
2022-10-01T03:06:08.206Z,10.13
2022-10-01T03:07:08.794Z,10.14
2022-10-01T03:08:08.464Z,10.13
2022-10-01T03:09:08.121Z,10.16
2022-10-01T03:10:09.626Z,10.13
2022-10-01T03:11:07.908Z,10.14
2022-10-01T03:12:08.438Z,10.10
2022-10-01T03:13:09.833Z,10.10
2022-10-01T03:14:10.109Z,10.11
2022-10-01T03:15:08.197Z,10.11
2022-10-01T03:16:07.938Z,10.13
2022-10-01T03:17:10.009Z,10.09
2022-10-01T03:18:10.121Z,10.09
2022-10-01T03:19:08.907Z,10.10
2022-10-01T03:20:08.842Z,10.10
2022-10-01T03:21:08.741Z,10.10
2022-10-01T03:22:08.034Z,10.10
2022-10-01T03:23:08.189Z,10.11
2022-10-01T03:24:13.739Z,10.10
2022-10-01T03:25:09.537Z,10.10
2022-10-01T03:26:07.788Z,10.13
2022-10-01T03:27:07.685Z,10.14
2022-10-01T03:28:07.666Z,10.16
2022-10-01T03:29:07.616Z,10.16
2022-10-01T03:30:07.640Z,10.16
2022-10-01T03:31:08.630Z,10.14
2022-10-01T03:32:07.629Z,10.14
2022-10-01T03:33:08.070Z,10.14
2022-10-01T03:34:08.116Z,10.16
2022-10-01T03:35:07.683Z,10.16
2022-10-01T03:36:11.070Z,10.14
2022-10-01T03:37:07.731Z,10.14
2022-10-01T03:38:07.634Z,10.16
2022-10-01T03:39:07.920Z,10.16
2022-10-01T03:40:08.214Z,10.14
2022-10-01T03:41:08.208Z,10.14
2022-10-01T03:42:07.594Z,10.14
2022-10-01T03:43:13.963Z,10.16
2022-10-01T03:44:08.199Z,10.17
2022-10-01T03:45:10.545Z,10.14
2022-10-01T03:46:25.232Z,10.13
2022-10-01T03:47:09.230Z,10.16
2022-10-01T03:48:07.980Z,10.16
2022-10-01T03:49:07.537Z,10.16
2022-10-01T03:50:07.483Z,10.16
2022-10-01T03:51:07.622Z,10.16
2022-10-01T03:52:08.234Z,10.16
2022-10-01T03:53:09.327Z,10.16
2022-10-01T03:54:07.587Z,10.16
2022-10-01T03:55:08.765Z,10.17
2022-10-01T03:56:07.339Z,10.17
2022-10-01T03:57:10.855Z,10.17
2022-10-01T03:58:11.827Z,10.18
2022-10-01T03:59:10.806Z,10.18
2022-10-01T04:00:12.092Z,10.18
2022-10-01T04:01:10.505Z,10.18
2022-10-01T04:02:09.708Z,10.18
2022-10-01T04:03:07.733Z,10.20
2022-10-01T04:04:07.817Z,10.20
2022-10-01T04:06:13.584Z,10.22
2022-10-01T04:08:45.137Z,10.20
2022-10-01T04:09:22.650Z,10.20
2022-10-01T04:10:22.143Z,10.22
2022-10-01T04:11:21.931Z,10.22
2022-10-01T04:12:28.206Z,10.24
2022-10-01T04:13:23.446Z,10.22
2022-10-01T04:14:22.338Z,10.22
2022-10-01T04:15:24.461Z,10.24
2022-10-01T04:17:55.271Z,10.26
2022-10-01T04:18:40.120Z,10.25
2022-10-01T04:19:40.634Z,10.24
2022-10-01T04:20:40.101Z,10.24
2022-10-01T04:21:40.622Z,10.24
2022-10-01T04:22:40.081Z,10.22
2022-10-01T04:23:40.926Z,10.18
2022-10-01T04:24:46.400Z,10.18
2022-10-01T04:25:40.201Z,10.18
2022-10-01T04:26:40.775Z,10.17
2022-10-01T04:27:41.844Z,10.17
2022-10-01T04:28:42.752Z,10.17
2022-10-01T04:29:46.212Z,10.17
2022-10-01T04:30:41.901Z,10.17
2022-10-01T04:31:49.410Z,10.17
2022-10-01T04:32:41.643Z,10.17
2022-10-01T04:33:44.114Z,10.17
2022-10-01T04:34:43.266Z,10.18
2022-10-01T04:35:47.095Z,10.17
2022-10-01T04:36:40.640Z,10.16
2022-10-01T04:37:39.695Z,10.16
2022-10-01T04:38:40.482Z,10.14
2022-10-01T04:39:41.366Z,10.14
2022-10-01T04:40:39.473Z,10.14
2022-10-01T04:41:41.474Z,10.11
2022-10-01T04:42:42.181Z,10.14
2022-10-01T04:43:42.515Z,10.14
2022-10-01T04:44:42.526Z,10.13
2022-10-01T04:45:41.773Z,10.13
2022-10-01T04:46:41.141Z,10.11
2022-10-01T04:47:42.817Z,10.11
2022-10-01T04:48:42.557Z,10.11
2022-10-01T04:49:40.782Z,10.11
2022-10-01T04:50:40.401Z,10.13
2022-10-01T04:51:41.895Z,10.13
2022-10-01T04:52:40.465Z,10.14
2022-10-01T04:53:40.765Z,10.14
2022-10-01T04:54:40.615Z,10.16
2022-10-01T04:55:42.195Z,10.17
2022-10-01T04:56:40.750Z,10.17
2022-10-01T04:57:39.601Z,10.16
2022-10-01T04:58:39.310Z,10.17
2022-10-01T04:59:40.515Z,10.17
2022-10-01T05:00:43.089Z,10.18
2022-10-01T05:03:13.641Z,10.18
2022-10-01T05:04:09.790Z,10.18
2022-10-01T05:05:08.996Z,10.17
2022-10-01T05:06:09.549Z,10.17
2022-10-01T05:07:09.560Z,10.20
2022-10-01T05:08:12.925Z,10.18
2022-10-01T05:09:08.916Z,10.20
2022-10-01T05:10:10.826Z,10.20
2022-10-01T05:11:09.361Z,10.22
2022-10-01T05:12:09.013Z,10.22
2022-10-01T05:13:08.642Z,10.22
2022-10-01T05:14:11.084Z,10.18
2022-10-01T05:15:09.663Z,10.22
2022-10-01T05:16:09.978Z,10.20
2022-10-01T05:17:08.746Z,10.20
2022-10-01T05:18:08.750Z,10.22
2022-10-01T05:19:10.072Z,10.20
2022-10-01T05:20:09.121Z,10.22
2022-10-01T05:21:11.812Z,10.25
2022-10-01T05:22:08.990Z,10.26
2022-10-01T05:23:09.097Z,10.25
2022-10-01T05:24:08.710Z,10.26
2022-10-01T05:25:08.694Z,10.25
2022-10-01T05:26:09.204Z,10.25
2022-10-01T05:27:09.449Z,10.26
2022-10-01T05:28:11.570Z,10.26
2022-10-01T05:29:08.633Z,10.26
2022-10-01T05:30:08.652Z,10.28
2022-10-01T05:31:08.427Z,10.26
2022-10-01T05:32:10.263Z,10.28
2022-10-01T05:33:18.807Z,10.28
2022-10-01T05:34:10.506Z,10.26
2022-10-01T05:35:12.106Z,10.29
2022-10-01T05:36:09.437Z,10.28
2022-10-01T05:37:08.663Z,10.28
2022-10-01T05:38:11.475Z,10.29
2022-10-01T05:39:10.147Z,10.29
2022-10-01T05:40:08.712Z,10.28
2022-10-01T05:41:11.342Z,10.28
2022-10-01T05:42:08.880Z,10.29
2022-10-01T05:43:36.044Z,10.28
2022-10-01T05:44:09.313Z,10.29
2022-10-01T05:45:10.508Z,10.29
2022-10-01T05:46:08.815Z,10.32
2022-10-01T05:49:15.894Z,10.34
2022-10-01T05:49:49.715Z,10.31
2022-10-01T05:50:51.028Z,10.32
2022-10-01T05:51:52.742Z,10.34
2022-10-01T05:52:50.242Z,10.34
2022-10-01T05:53:50.495Z,10.32
2022-10-01T05:54:49.832Z,10.35
2022-10-01T05:55:48.986Z,10.36
2022-10-01T05:56:51.303Z,10.35
2022-10-01T05:57:52.707Z,10.38
2022-10-01T05:58:49.006Z,10.42
2022-10-01T05:59:53.882Z,10.39
2022-10-01T06:00:50.811Z,10.42
2022-10-01T06:01:48.709Z,10.42
2022-10-01T06:02:48.791Z,10.43
2022-10-01T06:03:49.826Z,10.43
2022-10-01T06:04:51.437Z,10.44
2022-10-01T06:05:48.489Z,10.46
2022-10-01T06:06:52.388Z,10.44
2022-10-01T06:07:48.616Z,10.46
2022-10-01T06:08:48.362Z,10.49
2022-10-01T06:09:48.407Z,10.49
2022-10-01T06:10:48.434Z,10.49
2022-10-01T06:11:51.547Z,10.51
2022-10-01T06:12:51.435Z,10.51
2022-10-01T06:13:50.542Z,10.52
2022-10-01T06:14:48.428Z,10.54
2022-10-01T06:15:48.775Z,10.55
2022-10-01T06:16:48.494Z,10.57
2022-10-01T06:17:48.460Z,10.57
2022-10-01T06:18:48.234Z,10.58
2022-10-01T06:19:49.720Z,10.58
2022-10-01T06:20:48.194Z,10.58
2022-10-01T06:21:48.378Z,10.62
2022-10-01T06:22:48.226Z,10.60
2022-10-01T06:23:49.042Z,10.62
2022-10-01T06:24:48.119Z,10.63
2022-10-01T06:25:49.082Z,10.63
2022-10-01T06:26:48.451Z,10.63
2022-10-01T06:27:50.091Z,10.65
2022-10-01T06:28:48.239Z,10.66
2022-10-01T06:29:58.115Z,10.68
2022-10-01T06:30:48.256Z,10.68
2022-10-01T06:31:48.505Z,10.68
2022-10-01T06:32:49.610Z,10.68
2022-10-01T06:33:48.360Z,10.69
2022-10-01T06:34:50.484Z,10.70
2022-10-01T06:35:48.068Z,10.70
2022-10-01T06:36:53.114Z,10.72
2022-10-01T06:37:48.524Z,10.72
2022-10-01T06:38:48.330Z,10.73
2022-10-01T06:42:56.914Z,10.78
2022-10-01T06:43:49.470Z,10.78
2022-10-01T06:44:49.131Z,10.78
2022-10-01T06:45:48.895Z,10.80
2022-10-01T06:46:50.882Z,10.81
2022-10-01T06:47:51.199Z,10.81
2022-10-01T06:48:48.530Z,10.83
2022-10-01T06:49:48.738Z,10.83
2022-10-01T06:50:48.150Z,10.84
2022-10-01T06:51:48.546Z,10.84
2022-10-01T06:52:49.783Z,10.84
2022-10-01T06:53:49.581Z,10.86
2022-10-01T07:00:06.271Z,10.90
2022-10-01T07:00:53.189Z,10.88
2022-10-01T07:01:55.477Z,10.88
2022-10-01T07:02:53.918Z,10.90
2022-10-01T07:03:55.342Z,10.93
2022-10-01T07:04:52.802Z,10.91
2022-10-01T07:05:52.231Z,10.94
2022-10-01T07:06:50.513Z,10.95
2022-10-01T07:07:52.317Z,10.98
2022-10-01T07:08:51.694Z,10.99
2022-10-01T07:09:50.613Z,10.99
2022-10-01T07:10:52.190Z,10.99
2022-10-01T07:11:53.288Z,11.01
2022-10-01T07:12:54.806Z,11.01
2022-10-01T07:13:54.477Z,11.02
2022-10-01T07:14:50.730Z,11.03
2022-10-01T07:15:51.429Z,11.02
2022-10-01T07:16:50.948Z,11.05
2022-10-01T07:19:33.861Z,11.06
2022-10-01T07:20:22.192Z,11.08
2022-10-01T07:21:25.740Z,11.06
2022-10-01T07:23:50.557Z,11.09
2022-10-01T07:24:40.490Z,11.08
2022-10-01T07:25:39.626Z,11.09
2022-10-01T07:26:48.409Z,11.06
2022-10-01T07:27:42.299Z,11.08
2022-10-01T07:28:39.690Z,11.09
2022-10-01T07:29:40.938Z,11.09
2022-10-01T07:30:42.296Z,11.09
2022-10-01T07:31:42.864Z,11.09
2022-10-01T07:32:42.994Z,11.11
2022-10-01T07:33:51.230Z,11.11
2022-10-01T07:34:40.891Z,11.09
2022-10-01T07:35:42.956Z,11.13
2022-10-01T07:36:40.835Z,11.13
2022-10-01T07:37:39.610Z,11.16
2022-10-01T07:38:41.676Z,11.13
2022-10-01T07:39:42.362Z,11.13
2022-10-01T07:40:40.862Z,11.16
2022-10-01T07:41:40.915Z,11.16
2022-10-01T07:42:39.496Z,11.16
2022-10-01T07:43:43.230Z,11.19
2022-10-01T07:44:39.625Z,11.19
2022-10-01T07:46:03.795Z,11.19
2022-10-01T07:46:39.639Z,11.19
2022-10-01T07:47:39.822Z,11.20
2022-10-01T07:48:39.343Z,11.21
2022-10-01T07:49:39.394Z,11.20
2022-10-01T07:50:39.254Z,11.21
2022-10-01T07:51:40.225Z,11.23
2022-10-01T07:52:39.616Z,11.23
2022-10-01T07:53:44.409Z,11.24
2022-10-01T07:54:40.406Z,11.26
2022-10-01T07:55:39.907Z,11.26
2022-10-01T07:56:40.836Z,11.28
2022-10-01T07:57:39.474Z,11.28
2022-10-01T07:58:39.307Z,11.30
2022-10-01T07:59:40.066Z,11.31
2022-10-01T08:00:39.328Z,11.33
2022-10-01T08:01:39.131Z,11.35
2022-10-01T08:02:41.823Z,11.35
2022-10-01T08:03:39.145Z,11.36
2022-10-01T08:04:41.190Z,11.38
2022-10-01T08:05:40.192Z,11.41
2022-10-01T08:06:40.254Z,11.39
2022-10-01T08:07:39.078Z,11.42
2022-10-01T08:08:40.197Z,11.44
2022-10-01T08:09:41.708Z,11.48
2022-10-01T08:10:40.275Z,11.49
2022-10-01T08:11:40.080Z,11.53
2022-10-01T08:12:39.104Z,11.57
2022-10-01T08:13:40.654Z,11.59
2022-10-01T08:14:38.916Z,11.59
2022-10-01T08:15:40.772Z,11.62
2022-10-01T08:16:39.038Z,11.64
2022-10-01T08:17:39.198Z,11.66
2022-10-01T08:18:39.926Z,11.70
2022-10-01T08:19:40.044Z,11.72
2022-10-01T08:20:39.108Z,11.74
2022-10-01T08:21:38.852Z,11.75
2022-10-01T08:22:42.279Z,11.77
2022-10-01T08:23:57.921Z,11.79
2022-10-01T08:24:39.727Z,11.78
2022-10-01T08:25:38.671Z,11.81
2022-10-01T08:26:38.692Z,11.81
2022-10-01T08:27:38.695Z,11.81
2022-10-01T08:28:38.981Z,11.81
2022-10-01T08:29:38.874Z,11.84
2022-10-01T08:30:38.907Z,11.85
2022-10-01T08:31:38.842Z,11.87
2022-10-01T08:32:43.638Z,11.88
2022-10-01T08:33:38.643Z,11.88
2022-10-01T08:34:38.868Z,11.93
2022-10-01T08:35:38.966Z,11.93
2022-10-01T08:36:38.846Z,11.94
2022-10-01T08:37:38.722Z,11.98
2022-10-01T08:38:40.093Z,12.00
2022-10-01T08:39:50.264Z,12.00
2022-10-01T08:40:38.534Z,12.00
2022-10-01T08:41:39.593Z,12.03
2022-10-01T08:42:38.986Z,12.04
2022-10-01T08:43:39.069Z,12.05
2022-10-01T08:44:39.694Z,12.05
2022-10-01T08:45:38.539Z,12.07
2022-10-01T08:46:40.849Z,12.08
2022-10-01T08:47:38.383Z,12.11
2022-10-01T08:48:38.608Z,12.12
2022-10-01T08:49:42.135Z,12.12
2022-10-01T08:50:38.853Z,12.11
2022-10-01T08:51:40.632Z,12.13
2022-10-01T08:52:38.657Z,12.15
2022-10-01T08:53:38.561Z,12.18
2022-10-01T08:54:39.084Z,12.19
2022-10-01T08:55:38.567Z,12.19
2022-10-01T08:58:18.132Z,12.30
2022-10-01T08:59:19.044Z,12.33
2022-10-01T09:00:17.402Z,12.37
2022-10-01T09:01:17.460Z,12.46
2022-10-01T09:02:21.584Z,12.54
2022-10-01T09:03:18.038Z,12.61
2022-10-01T09:04:18.868Z,12.66
2022-10-01T09:05:18.774Z,12.69
2022-10-01T09:06:17.333Z,12.70
2022-10-01T09:07:19.471Z,12.73
2022-10-01T09:08:20.416Z,12.71
2022-10-01T09:10:57.235Z,12.73
2022-10-01T09:11:59.140Z,12.74
2022-10-01T09:14:17.067Z,12.79
2022-10-01T09:17:12.297Z,12.81
2022-10-01T09:32:45.392Z,13.17
2022-10-01T09:33:50.013Z,13.21
2022-10-01T09:34:43.366Z,13.22
2022-10-01T09:35:49.260Z,13.25
2022-10-01T09:36:45.420Z,13.35
2022-10-01T09:37:45.067Z,13.47
2022-10-01T09:38:47.147Z,13.54
2022-10-01T09:39:51.293Z,13.57
2022-10-01T09:40:44.200Z,13.61
2022-10-01T09:41:45.764Z,13.65
2022-10-01T09:42:43.931Z,13.69
2022-10-01T09:43:43.510Z,13.75
2022-10-01T09:44:45.477Z,13.79
2022-10-01T09:45:43.018Z,13.86
2022-10-01T09:46:44.852Z,13.93
2022-10-01T09:47:43.353Z,13.98
2022-10-01T09:48:43.532Z,14.05
2022-10-01T09:49:43.255Z,14.12
2022-10-01T09:50:43.001Z,14.16
2022-10-01T09:51:46.353Z,14.16
2022-10-01T09:52:43.947Z,14.13
2022-10-01T09:53:43.271Z,14.09
2022-10-01T09:54:47.969Z,14.11
2022-10-01T09:55:44.498Z,14.09
2022-10-01T09:56:47.492Z,14.11
2022-10-01T09:57:43.028Z,14.12
2022-10-01T09:58:46.454Z,14.29
2022-10-01T09:59:43.021Z,14.30
2022-10-01T10:00:44.200Z,14.31
2022-10-01T10:01:43.309Z,14.41
2022-10-01T10:02:48.416Z,14.56
2022-10-01T10:03:43.954Z,14.63
2022-10-01T10:04:42.953Z,14.80
2022-10-01T10:05:43.359Z,15.01
2022-10-01T10:06:43.717Z,15.15
2022-10-01T10:07:47.019Z,15.15
2022-10-01T10:08:42.866Z,15.16
2022-10-01T10:09:43.214Z,15.20
2022-10-01T10:10:47.734Z,15.18
2022-10-01T10:11:47.206Z,15.18
2022-10-01T10:12:42.695Z,15.31
2022-10-01T10:13:46.533Z,15.43
2022-10-01T10:14:47.175Z,15.48
2022-10-01T10:15:43.681Z,15.43
2022-10-01T10:16:43.033Z,15.37
2022-10-01T10:17:43.534Z,15.31
2022-10-01T10:18:45.058Z,15.27
2022-10-01T10:19:47.400Z,15.22
2022-10-01T10:20:43.287Z,15.19
2022-10-01T10:21:46.701Z,15.16
2022-10-01T10:22:46.951Z,15.13
2022-10-01T10:23:42.981Z,15.03
2022-10-01T10:24:42.709Z,14.98
2022-10-01T10:25:42.642Z,14.97
2022-10-01T10:26:44.310Z,14.93
2022-10-01T10:27:43.674Z,14.91
2022-10-01T10:28:44.171Z,14.87
2022-10-01T10:29:43.699Z,14.85
2022-10-01T10:30:52.396Z,14.83
2022-10-01T10:31:42.596Z,14.78
2022-10-01T10:32:43.851Z,14.78
2022-10-01T10:33:43.392Z,14.80
2022-10-01T10:34:44.765Z,14.85
2022-10-01T10:35:43.157Z,14.87
2022-10-01T10:36:44.317Z,14.90
2022-10-01T10:37:43.728Z,14.91
2022-10-01T10:38:43.548Z,14.93
2022-10-01T10:39:42.444Z,14.93
2022-10-01T10:40:42.742Z,14.94
2022-10-01T10:41:45.728Z,14.97
2022-10-01T10:42:43.140Z,14.97
2022-10-01T10:43:42.245Z,15.03
2022-10-01T10:44:42.502Z,15.16
2022-10-01T10:45:42.358Z,15.20
2022-10-01T10:46:46.303Z,15.20
2022-10-01T10:47:47.596Z,15.18
2022-10-01T10:48:42.289Z,15.16
2022-10-01T10:49:44.037Z,15.19
2022-10-01T10:50:45.757Z,15.23
2022-10-01T10:51:42.736Z,15.23
2022-10-01T10:52:45.581Z,15.27
2022-10-01T10:53:45.007Z,15.27
2022-10-01T10:54:42.288Z,15.22
2022-10-01T10:55:43.238Z,15.18
2022-10-01T10:56:45.579Z,15.13
2022-10-01T10:57:42.121Z,15.11
2022-10-01T10:58:42.544Z,15.05
2022-10-01T10:59:44.962Z,15.01
2022-10-01T11:00:43.822Z,15.00
2022-10-01T11:01:42.504Z,14.95
2022-10-01T11:02:42.806Z,14.93
2022-10-01T11:03:43.350Z,14.91
2022-10-01T11:04:42.910Z,14.86
2022-10-01T11:05:46.787Z,14.82
2022-10-01T11:06:42.796Z,14.82
2022-10-01T11:07:44.631Z,14.79
2022-10-01T11:08:42.237Z,14.78
2022-10-01T11:09:43.162Z,14.75
2022-10-01T11:10:42.879Z,14.72
2022-10-01T11:11:42.038Z,14.69
2022-10-01T11:12:43.281Z,14.67
2022-10-01T11:13:41.950Z,14.66
2022-10-01T11:14:42.372Z,14.67
2022-10-01T11:15:43.446Z,14.67
2022-10-01T11:16:42.469Z,14.67
2022-10-01T11:17:42.043Z,14.71
2022-10-01T11:18:45.369Z,14.72
2022-10-01T11:19:44.414Z,14.74
2022-10-01T11:20:44.047Z,14.72
2022-10-01T11:21:43.601Z,14.72
2022-10-01T11:22:41.995Z,14.72
2022-10-01T11:23:42.515Z,14.69
2022-10-01T11:24:44.513Z,14.71
2022-10-01T11:25:41.705Z,14.71
2022-10-01T11:26:43.565Z,14.67
2022-10-01T11:27:43.811Z,14.67
2022-10-01T11:28:43.375Z,14.66
2022-10-01T11:29:45.536Z,14.66
2022-10-01T11:30:43.390Z,14.63
2022-10-01T11:31:44.676Z,14.63
2022-10-01T11:32:59.504Z,14.61
2022-10-01T11:33:43.642Z,14.56
2022-10-01T11:34:42.169Z,14.53
2022-10-01T11:36:05.998Z,14.48
2022-10-01T11:36:55.502Z,14.46
2022-10-01T11:37:47.020Z,14.45
2022-10-01T11:38:51.120Z,14.39
2022-10-01T11:39:44.165Z,14.36
2022-10-01T11:40:42.425Z,14.34
2022-10-01T11:42:02.767Z,14.31
2022-10-01T11:42:44.786Z,14.31
2022-10-01T12:01:39.873Z,14.94
2022-10-01T12:02:12.699Z,14.98
2022-10-01T12:03:15.607Z,15.00
2022-10-01T12:04:19.956Z,15.04
2022-10-01T12:05:45.888Z,15.07
2022-10-01T12:06:37.046Z,15.13
2022-10-01T12:07:12.537Z,15.22
2022-10-01T12:08:12.647Z,15.34
2022-10-01T12:09:12.959Z,15.43
2022-10-01T12:10:12.520Z,15.55
2022-10-01T12:11:13.385Z,15.62
2022-10-01T12:12:12.787Z,15.62
2022-10-01T12:13:12.584Z,15.73
2022-10-01T12:14:13.217Z,15.84
2022-10-01T12:15:12.586Z,16.11
2022-10-01T12:16:12.286Z,16.32
2022-10-01T12:17:12.387Z,16.37
2022-10-01T12:18:12.323Z,16.25
2022-10-01T12:19:12.207Z,16.07
2022-10-01T12:20:14.228Z,16.03
2022-10-01T12:21:12.264Z,16.04
2022-10-01T12:22:12.922Z,16.17
2022-10-01T12:23:12.591Z,16.17
2022-10-01T12:24:12.208Z,16.16
2022-10-01T12:25:12.212Z,16.16
2022-10-01T12:26:12.423Z,16.17
2022-10-01T12:27:12.370Z,16.10
2022-10-01T12:28:12.173Z,16.06
2022-10-01T12:29:12.669Z,16.01
2022-10-01T12:30:13.089Z,15.98
2022-10-01T12:31:12.571Z,16.10
2022-10-01T12:32:12.178Z,16.27
2022-10-01T12:33:12.548Z,16.40
2022-10-01T12:34:17.879Z,16.41
2022-10-01T12:35:14.163Z,16.26
2022-10-01T12:36:13.255Z,16.10
2022-10-01T12:37:12.503Z,15.98
2022-10-01T12:38:12.751Z,15.91
2022-10-01T12:39:12.616Z,15.77
2022-10-01T12:40:12.945Z,15.68
2022-10-01T12:42:28.887Z,15.60
2022-10-01T12:43:26.966Z,15.56
2022-10-01T12:44:26.664Z,15.55
2022-10-01T12:45:27.696Z,15.48
2022-10-01T12:46:27.118Z,15.40
2022-10-01T12:47:26.899Z,15.34
2022-10-01T12:48:26.710Z,15.27
2022-10-01T12:49:27.403Z,15.25
2022-10-01T12:50:27.778Z,15.18
2022-10-01T12:51:27.373Z,15.18
2022-10-01T12:52:26.962Z,15.16
2022-10-01T12:53:26.593Z,15.13
2022-10-01T12:54:59.441Z,15.03
2022-10-01T12:55:29.049Z,14.95
2022-10-01T12:56:31.877Z,14.83
2022-10-01T12:57:30.716Z,14.78
2022-10-01T12:58:36.516Z,14.63
2022-10-01T13:02:20.649Z,14.39
2022-10-01T13:03:23.710Z,14.35
2022-10-01T13:04:20.195Z,14.38
2022-10-01T13:05:20.195Z,14.39
2022-10-01T13:06:21.676Z,14.42
2022-10-01T13:09:05.520Z,14.63
2022-10-01T13:29:56.019Z,15.31
2022-10-01T13:30:48.307Z,15.33
2022-10-01T13:31:47.809Z,15.40
2022-10-01T13:32:48.161Z,15.41
2022-10-01T13:33:46.461Z,15.46
2022-10-01T13:34:46.452Z,15.51
2022-10-01T13:35:46.688Z,15.58
2022-10-01T13:36:47.167Z,15.60
2022-10-01T13:37:48.061Z,15.64
2022-10-01T13:38:46.852Z,15.66
2022-10-01T13:39:46.585Z,15.68
2022-10-01T13:40:47.365Z,15.68
2022-10-01T13:41:49.662Z,15.67
2022-10-01T13:42:46.399Z,15.68
2022-10-01T13:43:47.132Z,15.66
2022-10-01T13:44:47.175Z,15.68
2022-10-01T13:45:51.978Z,15.68
2022-10-01T13:46:47.415Z,15.66
2022-10-01T13:47:46.709Z,15.59
2022-10-01T13:48:46.542Z,15.53
2022-10-01T13:49:47.206Z,15.51
2022-10-01T13:50:46.970Z,15.49
2022-10-01T13:51:46.549Z,15.38
2022-10-01T13:52:46.289Z,15.34
2022-10-01T13:53:48.080Z,15.33
2022-10-01T13:54:46.836Z,15.30
2022-10-01T13:55:48.560Z,15.30
2022-10-01T13:56:46.303Z,15.31
2022-10-01T13:57:46.710Z,15.30
2022-10-01T13:58:47.150Z,15.31
2022-10-01T13:59:46.623Z,15.34
2022-10-01T14:00:46.411Z,15.33
2022-10-01T14:01:46.529Z,15.34
2022-10-01T14:02:46.400Z,15.35
2022-10-01T14:03:46.390Z,15.34
2022-10-01T14:04:46.368Z,15.37
2022-10-01T14:05:47.088Z,15.38
2022-10-01T14:06:46.037Z,15.43
2022-10-01T14:07:49.275Z,15.44
2022-10-01T14:08:46.002Z,15.48
2022-10-01T14:09:47.118Z,15.49
2022-10-01T14:10:50.668Z,15.49
2022-10-01T14:11:46.393Z,15.52
2022-10-01T14:12:46.575Z,15.53
2022-10-01T14:13:50.175Z,15.55
2022-10-01T14:15:00.559Z,15.59
2022-10-01T14:15:46.202Z,15.62
2022-10-01T14:16:47.136Z,15.64
2022-10-01T14:17:49.607Z,15.64
2022-10-01T14:18:47.232Z,15.64